createdAt,value
2023-04-12T00:01:33.672Z,100091.78
2023-04-12T00:04:05.074Z,100086.44
2023-04-12T00:06:32.877Z,100088.28
2023-04-12T00:09:02.195Z,100083.75
2023-04-12T00:11:31.870Z,100082.72
2023-04-12T00:13:58.926Z,100086.31
2023-04-12T00:16:26.721Z,100091.06
2023-04-12T00:18:57.799Z,100091.63
2023-04-12T00:21:29.083Z,100092.25
2023-04-12T00:23:57.452Z,100084.28
2023-04-12T00:26:27.659Z,100088.13
2023-04-12T00:28:55.063Z,100083.69
2023-04-12T00:31:22.416Z,100083.12
2023-04-12T00:33:49.774Z,100079.62
2023-04-12T00:36:17.952Z,100079.31
2023-04-12T00:38:51.452Z,100079.22
2023-04-12T00:41:18.911Z,100079.19
2023-04-12T00:43:46.052Z,100073.84
2023-04-12T00:46:13.504Z,100085.91
2023-04-12T00:48:41.099Z,100080.87
2023-04-12T00:51:08.453Z,100090.53
2023-04-12T00:53:36.433Z,100095.09
2023-04-12T00:56:04.564Z,100088.47
2023-04-12T00:58:32.306Z,100091.47
2023-04-12T01:00:59.602Z,100087.50
2023-04-12T01:03:31.230Z,100091.81
2023-04-12T01:06:33.272Z,100085.81
2023-04-12T01:09:11.639Z,100084.16
2023-04-12T01:11:44.680Z,100089.28
2023-04-12T01:14:14.631Z,100082.28
2023-04-12T01:16:51.709Z,100076.91
2023-04-12T01:19:29.239Z,100069.91
2023-04-12T01:22:30.511Z,100073.34
2023-04-12T01:25:05.144Z,100063.97
2023-04-12T01:27:42.607Z,100073.47
2023-04-12T01:30:14.252Z,100068.28
2023-04-12T01:32:44.487Z,100070.09
2023-04-12T01:35:13.270Z,100068.38
2023-04-12T01:37:41.732Z,100072.78
2023-04-12T01:40:15.235Z,100070.22
2023-04-12T01:42:42.409Z,100069.22
2023-04-12T01:45:09.941Z,100077.84
2023-04-12T01:47:39.465Z,100086.69
2023-04-12T01:50:28.494Z,100080.59
2023-04-12T01:53:27.601Z,100087.56
2023-04-12T01:56:00.033Z,100080.53
2023-04-12T01:58:29.781Z,100083.22
2023-04-12T02:00:59.273Z,100084.94
2023-04-12T02:03:27.372Z,100085.84
2023-04-12T02:05:54.635Z,100079.69
2023-04-12T02:08:22.346Z,100086.66
2023-04-12T02:10:49.512Z,100086.66
2023-04-12T02:13:18.473Z,100092.78
2023-04-12T02:15:46.277Z,100089.25
2023-04-12T02:18:14.307Z,100088.44
2023-04-12T02:20:41.507Z,100084.87
2023-04-12T02:23:09.892Z,100087.59
2023-04-12T02:25:36.996Z,100087.56
2023-04-12T02:28:04.131Z,100089.31
2023-04-12T02:30:31.360Z,100087.59
2023-04-12T02:32:59.007Z,100074.53
2023-04-12T02:35:26.705Z,100087.56
2023-04-12T02:37:55.141Z,100081.50
2023-04-12T02:40:22.473Z,100081.47
2023-04-12T02:42:49.636Z,100069.25
2023-04-12T02:45:16.932Z,100065.78
2023-04-12T02:47:44.078Z,100059.66
2023-04-12T02:50:12.234Z,100065.78
2023-04-12T02:52:39.399Z,100071.00
2023-04-12T02:55:07.079Z,100073.63
2023-04-12T02:57:34.101Z,100064.00
2023-04-12T03:00:01.930Z,100067.53
2023-04-12T03:02:29.394Z,100073.63
2023-04-12T03:04:57.335Z,100067.47
2023-04-12T03:07:24.573Z,100065.69
2023-04-12T03:09:52.120Z,100061.37
2023-04-12T03:12:19.440Z,100063.97
2023-04-12T03:14:46.701Z,100075.31
2023-04-12T03:17:13.849Z,100075.38
2023-04-12T03:19:41.086Z,100074.50
2023-04-12T03:22:08.203Z,100076.25
2023-04-12T03:24:35.430Z,100073.63
2023-04-12T03:27:03.953Z,100078.00
2023-04-12T03:29:31.653Z,100085.75
2023-04-12T03:31:59.909Z,100079.72
2023-04-12T03:34:28.147Z,100081.47
2023-04-12T03:36:56.075Z,100076.25
2023-04-12T03:39:23.289Z,100071.00
2023-04-12T03:41:51.082Z,100064.91
2023-04-12T03:44:18.317Z,100064.03
2023-04-12T03:46:45.957Z,100063.16
2023-04-12T03:49:13.286Z,100058.81
2023-04-12T03:51:44.035Z,100057.94
2023-04-12T03:54:14.748Z,100048.34
2023-04-12T03:56:42.795Z,100051.84
2023-04-12T03:59:10.879Z,100042.25
2023-04-12T04:01:39.101Z,100042.22
2023-04-12T04:04:07.221Z,100046.63
2023-04-12T04:06:34.941Z,100036.16
2023-04-12T04:09:02.183Z,100032.66
2023-04-12T04:11:29.397Z,100036.13
2023-04-12T04:13:56.722Z,100038.75
2023-04-12T04:16:24.062Z,100030.94
2023-04-12T04:18:51.378Z,100023.09
2023-04-12T04:21:19.869Z,100028.28
2023-04-12T04:23:48.350Z,100025.69
2023-04-12T04:26:17.188Z,100033.53
2023-04-12T04:28:48.054Z,100036.06
2023-04-12T04:31:17.960Z,100034.38
2023-04-12T04:33:45.132Z,100028.28
2023-04-12T04:36:13.860Z,100026.50
2023-04-12T04:38:42.326Z,100026.22
2023-04-12T04:41:09.564Z,100037.28
2023-04-12T04:43:40.213Z,100045.97
2023-04-12T04:46:07.517Z,100041.00
2023-04-12T04:48:34.858Z,100039.56
2023-04-12T04:51:02.620Z,100033.00
2023-04-12T04:53:29.703Z,100029.47
2023-04-12T04:56:01.355Z,100026.97
2023-04-12T04:58:28.585Z,100017.22
2023-04-12T05:00:59.949Z,100016.09
2023-04-12T05:03:31.049Z,100022.12
2023-04-12T05:05:58.187Z,100017.13
2023-04-12T05:08:25.429Z,100021.44
2023-04-12T05:10:53.604Z,100022.00
2023-04-12T05:13:22.555Z,100034.56
2023-04-12T05:15:50.317Z,100037.06
2023-04-12T05:18:18.352Z,100043.41
2023-04-12T05:20:46.131Z,100039.22
2023-04-12T05:23:13.157Z,100034.75
2023-04-12T05:25:48.515Z,100029.19
2023-04-12T05:28:20.267Z,100033.03
2023-04-12T05:30:47.333Z,100034.25
2023-04-12T05:33:14.474Z,100017.19
2023-04-12T05:35:41.481Z,100021.13
2023-04-12T05:38:08.577Z,100012.75
2023-04-12T05:40:36.724Z,100017.22
2023-04-12T05:43:03.977Z,100018.50
2023-04-12T05:45:33.173Z,100012.31
2023-04-12T05:48:00.363Z,100005.91
2023-04-12T05:50:27.398Z,100009.87
2023-04-12T05:52:55.817Z,100009.75
2023-04-12T05:55:22.994Z,100011.94
2023-04-12T05:57:50.132Z,100002.84
2023-04-12T06:00:17.783Z,100010.13
2023-04-12T06:02:46.328Z,100003.31
2023-04-12T06:05:13.946Z,100011.78
2023-04-12T06:07:44.875Z,100014.53
2023-04-12T06:10:12.082Z,100012.56
2023-04-12T06:12:39.430Z,100018.09
2023-04-12T06:15:07.947Z,100015.72
2023-04-12T06:17:45.238Z,100009.16
2023-04-12T06:20:14.673Z,100014.78
2023-04-12T06:22:45.377Z,100018.00
2023-04-12T06:25:12.521Z,100018.28
2023-04-12T06:27:39.567Z,100011.50
2023-04-12T06:30:07.259Z,100016.50
2023-04-12T06:32:34.475Z,100011.53
2023-04-12T06:35:01.572Z,100017.13
2023-04-12T06:37:28.681Z,100011.91
2023-04-12T06:39:55.858Z,100015.69
2023-04-12T06:42:23.007Z,100011.84
2023-04-12T06:44:50.146Z,100016.00
2023-04-12T06:47:20.366Z,100008.81
2023-04-12T06:49:47.672Z,100012.94
2023-04-12T06:52:14.946Z,100002.44
2023-04-12T06:54:42.748Z,100004.47
2023-04-12T06:57:12.603Z,100005.25
2023-04-12T06:59:42.084Z,99998.31
2023-04-12T07:02:09.292Z,100006.63
2023-04-12T07:04:36.727Z,99991.31
2023-04-12T07:07:03.948Z,99999.41
2023-04-12T07:09:34.126Z,99989.59
2023-04-12T07:12:02.648Z,99993.94
2023-04-12T07:14:29.879Z,99986.63
2023-04-12T07:16:59.402Z,99983.31
2023-04-12T07:19:26.599Z,99985.34
2023-04-12T07:21:53.786Z,99982.72
2023-04-12T07:24:22.318Z,99972.06
2023-04-12T07:26:49.909Z,99981.16
2023-04-12T07:29:17.808Z,99981.38
2023-04-12T07:31:44.958Z,99972.69
2023-04-12T07:34:13.573Z,99983.34
2023-04-12T07:36:40.937Z,99977.91
2023-04-12T07:39:12.248Z,99971.25
2023-04-12T07:41:39.782Z,99963.31
2023-04-12T07:44:07.054Z,99971.06
2023-04-12T07:46:36.611Z,99960.44
2023-04-12T07:49:04.503Z,99966.50
2023-04-12T07:51:31.698Z,99960.00
2023-04-12T07:53:59.059Z,99957.69
2023-04-12T07:56:26.551Z,99946.56
2023-04-12T07:58:54.150Z,99941.88
2023-04-12T08:01:21.613Z,99931.06
2023-04-12T08:03:49.104Z,99939.97
2023-04-12T08:06:17.837Z,99938.66
2023-04-12T08:08:45.127Z,99935.50
2023-04-12T08:11:14.232Z,99934.22
2023-04-12T08:13:41.335Z,99929.81
2023-04-12T08:16:09.454Z,99928.00
2023-04-12T08:18:38.662Z,99936.91
2023-04-12T08:21:06.019Z,99930.09
2023-04-12T08:23:33.481Z,99923.91
2023-04-12T08:26:05.133Z,99927.72
2023-04-12T08:28:32.843Z,99913.97
2023-04-12T08:31:02.025Z,99916.84
2023-04-12T08:33:29.362Z,99902.56
2023-04-12T08:35:57.074Z,99893.22
2023-04-12T08:38:33.906Z,99889.81
2023-04-12T08:41:14.804Z,99889.13
2023-04-12T08:43:45.747Z,99889.59
2023-04-12T08:46:17.969Z,99881.28
2023-04-12T08:48:50.932Z,99897.69
2023-04-12T08:51:19.798Z,99887.81
2023-04-12T08:53:47.212Z,99887.81
2023-04-12T08:56:17.884Z,99881.84
2023-04-12T08:58:51.471Z,99872.72
2023-04-12T09:01:20.948Z,99869.47
2023-04-12T09:03:48.171Z,99859.47
2023-04-12T09:06:15.988Z,99855.59
2023-04-12T09:08:55.323Z,99845.00
2023-04-12T09:11:27.304Z,99849.50
2023-04-12T09:13:56.530Z,99850.44
2023-04-12T09:16:41.526Z,99847.59
2023-04-12T09:19:09.748Z,99843.88
2023-04-12T09:21:37.483Z,99841.94
2023-04-12T09:24:14.796Z,99843.69
2023-04-12T09:26:42.548Z,99832.78
2023-04-12T09:29:25.541Z,99837.94
2023-04-12T09:32:08.095Z,99836.00
2023-04-12T09:34:38.702Z,99836.31
2023-04-12T09:37:24.623Z,99838.66
2023-04-12T09:40:11.113Z,99832.25
2023-04-12T09:42:53.711Z,99810.44
2023-04-12T09:45:26.164Z,99821.06
2023-04-12T09:47:54.841Z,99814.59
2023-04-12T09:50:30.029Z,99808.91
2023-04-12T09:52:59.500Z,99805.59
2023-04-12T09:55:30.058Z,99788.47
2023-04-12T09:57:58.774Z,99792.34
2023-04-12T10:00:27.659Z,99790.94
2023-04-12T10:02:57.087Z,99790.53
2023-04-12T10:05:26.921Z,99788.75
2023-04-12T10:07:58.684Z,99783.97
2023-04-12T10:10:26.282Z,99771.66
2023-04-12T10:12:53.580Z,99764.63
2023-04-12T10:15:23.926Z,99766.91
2023-04-12T10:17:57.887Z,99757.75
2023-04-12T10:20:28.517Z,99770.28
2023-04-12T10:22:58.151Z,99760.31
2023-04-12T10:25:31.840Z,99745.38
2023-04-12T10:28:14.730Z,99756.34
2023-04-12T10:30:42.229Z,99755.78
2023-04-12T10:33:14.351Z,99757.22
2023-04-12T10:36:01.029Z,99761.06
2023-04-12T10:38:33.645Z,99761.62
2023-04-12T10:41:21.171Z,99749.69
2023-04-12T10:43:52.606Z,99749.25
2023-04-12T10:46:41.629Z,99739.06
2023-04-12T10:49:11.838Z,99736.03
2023-04-12T10:51:39.339Z,99728.75
2023-04-12T10:54:11.944Z,99725.31
2023-04-12T10:56:41.081Z,99727.31
2023-04-12T10:59:09.843Z,99722.91
2023-04-12T11:01:39.471Z,99716.91
2023-04-12T11:04:24.122Z,99711.87
2023-04-12T11:06:59.164Z,99711.09
2023-04-12T11:09:39.702Z,99707.59
2023-04-12T11:12:09.580Z,99702.13
2023-04-12T11:14:48.402Z,99701.06
2023-04-12T11:17:16.144Z,99699.66
2023-04-12T11:19:46.585Z,99691.41
2023-04-12T11:22:16.634Z,99700.62
2023-04-12T11:24:45.624Z,99684.66
2023-04-12T11:27:13.252Z,99680.63
2023-04-12T11:29:40.591Z,99678.22
2023-04-12T11:32:15.077Z,99661.00
2023-04-12T11:34:48.267Z,99662.91
2023-04-12T11:37:16.054Z,99657.09
2023-04-12T11:39:44.853Z,99661.06
2023-04-12T11:42:21.210Z,99658.16
2023-04-12T11:44:57.302Z,99656.25
2023-04-12T11:47:28.063Z,99653.59
2023-04-12T11:49:59.505Z,99644.34
2023-04-12T11:52:32.190Z,99646.47
2023-04-12T11:55:07.827Z,99645.25
2023-04-12T11:57:37.681Z,99634.97
2023-04-12T12:00:08.294Z,99635.47
2023-04-12T12:02:43.546Z,99623.03
2023-04-12T12:05:13.853Z,99621.16
2023-04-12T12:07:43.397Z,99616.75
2023-04-12T12:10:10.609Z,99620.91
2023-04-12T12:12:37.862Z,99628.16
2023-04-12T12:15:05.408Z,99618.72
2023-04-12T12:17:38.207Z,99609.91
2023-04-12T12:20:08.105Z,99603.19
2023-04-12T12:22:35.230Z,99600.22
2023-04-12T12:25:04.404Z,99598.94
2023-04-12T12:27:35.573Z,99600.72
2023-04-12T12:30:04.748Z,99597.37
2023-04-12T12:32:37.504Z,99583.53
2023-04-12T12:35:10.327Z,99585.06
2023-04-12T12:37:37.559Z,99591.66
2023-04-12T12:40:18.053Z,99584.41
2023-04-12T12:42:56.642Z,99586.34
2023-04-12T12:45:26.082Z,99574.47
2023-04-12T12:48:01.092Z,99577.84
2023-04-12T12:50:33.150Z,99578.44
2023-04-12T12:53:01.258Z,99569.97
2023-04-12T12:55:33.547Z,99582.78
2023-04-12T13:00:31.952Z,99588.44
2023-04-12T13:03:02.181Z,99578.81
2023-04-12T13:05:30.050Z,99577.59
2023-04-12T13:07:57.281Z,99574.69
2023-04-12T13:10:24.650Z,99575.53
2023-04-12T13:12:55.150Z,99573.47
2023-04-12T13:15:24.167Z,99563.50
2023-04-12T13:17:55.649Z,99565.87
2023-04-12T13:20:41.028Z,99548.09
2023-04-12T13:23:11.031Z,99556.12
2023-04-12T13:25:42.061Z,99545.84
2023-04-12T13:28:13.082Z,99545.22
2023-04-12T13:30:40.252Z,99532.66
2023-04-12T13:33:09.967Z,99527.31
2023-04-12T13:35:37.671Z,99533.88
2023-04-12T13:38:04.792Z,99529.03
2023-04-12T13:40:32.147Z,99527.50
2023-04-12T13:43:02.846Z,99526.03
2023-04-12T13:45:31.164Z,99516.16
2023-04-12T13:48:00.130Z,99514.09
2023-04-12T13:50:27.609Z,99515.25
2023-04-12T13:52:56.712Z,99517.84
2023-04-12T13:55:23.861Z,99509.03
2023-04-12T13:57:51.042Z,99508.41
2023-04-12T14:00:27.894Z,99511.56
2023-04-12T14:02:55.207Z,99506.03
2023-04-12T14:05:23.091Z,99511.47
2023-04-12T14:07:51.121Z,99510.97
2023-04-12T14:10:18.517Z,99511.72
2023-04-12T14:12:45.670Z,99506.59
2023-04-12T14:15:12.841Z,99497.34
2023-04-12T14:17:42.050Z,99498.25
2023-04-12T14:20:16.602Z,99505.75
2023-04-12T14:22:45.049Z,99503.31
2023-04-12T14:25:12.163Z,99500.44
2023-04-12T14:27:39.239Z,99497.75
2023-04-12T14:30:07.711Z,99495.56
2023-04-12T14:32:34.804Z,99497.22
2023-04-12T14:35:04.925Z,99488.44
2023-04-12T14:37:33.315Z,99496.50
2023-04-12T14:40:00.384Z,99500.84
2023-04-12T14:42:27.470Z,99508.44
2023-04-12T14:44:54.456Z,99506.81
2023-04-12T14:47:21.842Z,99507.47
2023-04-12T14:49:48.905Z,99498.34
2023-04-12T14:52:16.809Z,99498.94
2023-04-12T14:54:43.839Z,99489.81
2023-04-12T14:57:11.477Z,99491.06
2023-04-12T14:59:40.523Z,99501.69
2023-04-12T15:02:07.747Z,99502.03
2023-04-12T15:04:37.046Z,99495.06
2023-04-12T15:07:04.139Z,99481.75
2023-04-12T15:09:31.398Z,99493.22
2023-04-12T15:12:03.429Z,99490.03
2023-04-12T15:14:30.493Z,99488.09
2023-04-12T15:16:59.542Z,99483.59
2023-04-12T15:19:26.548Z,99480.09
2023-04-12T15:21:59.199Z,99480.78
2023-04-12T15:24:28.345Z,99477.56
2023-04-12T15:26:55.439Z,99477.38
2023-04-12T15:29:22.976Z,99467.28
2023-04-12T15:31:50.473Z,99456.28
2023-04-12T15:34:17.945Z,99459.44
2023-04-12T15:36:46.355Z,99453.25
2023-04-12T15:39:15.230Z,99446.88
2023-04-12T15:41:43.416Z,99446.03
2023-04-12T15:44:14.382Z,99449.75
2023-04-12T15:46:42.047Z,99443.47
2023-04-12T15:49:09.964Z,99442.22
2023-04-12T15:51:36.943Z,99445.69
2023-04-12T15:54:05.627Z,99437.13
2023-04-12T15:56:32.798Z,99426.69
2023-04-12T15:59:01.452Z,99425.84
2023-04-12T16:01:28.825Z,99424.41
2023-04-12T16:03:56.078Z,99420.41
2023-04-12T16:06:25.525Z,99422.31
2023-04-12T16:08:54.872Z,99411.63
2023-04-12T16:11:24.113Z,99418.72
2023-04-12T16:13:51.867Z,99418.09
2023-04-12T16:16:21.556Z,99421.94
2023-04-12T16:18:49.159Z,99416.59
2023-04-12T16:21:20.376Z,99409.66
2023-04-12T16:23:49.141Z,99414.22
2023-04-12T16:26:24.971Z,99403.44
2023-04-12T16:28:53.530Z,99405.13
2023-04-12T16:31:21.453Z,99413.25
2023-04-12T16:33:49.909Z,99405.97
2023-04-12T16:36:17.435Z,99401.81
2023-04-12T16:38:45.858Z,99398.47
2023-04-12T16:41:13.299Z,99394.62
2023-04-12T16:43:41.495Z,99397.09
2023-04-12T16:46:10.933Z,99392.91
2023-04-12T16:48:43.841Z,99392.81
2023-04-12T16:51:10.853Z,99391.22
2023-04-12T16:53:37.994Z,99388.28
2023-04-12T16:56:07.473Z,99385.09
2023-04-12T16:58:34.536Z,99390.63
2023-04-12T17:01:02.181Z,99388.94
2023-04-12T17:03:29.330Z,99380.28
2023-04-12T17:05:56.370Z,99385.84
2023-04-12T17:08:23.501Z,99376.16
2023-04-12T17:10:53.142Z,99366.78
2023-04-12T17:13:20.556Z,99374.75
2023-04-12T17:15:50.552Z,99365.56
2023-04-12T17:18:17.672Z,99366.50
2023-04-12T17:20:45.096Z,99369.44
2023-04-12T17:23:12.654Z,99370.16
2023-04-12T17:25:40.172Z,99378.72
2023-04-12T17:28:08.688Z,99383.31
2023-04-12T17:30:35.764Z,99381.19
2023-04-12T17:33:03.269Z,99373.78
2023-04-12T17:35:30.362Z,99373.66
2023-04-12T17:37:57.514Z,99367.13
2023-04-12T17:40:24.545Z,99375.00
2023-04-12T17:42:53.637Z,99369.50
2023-04-12T17:45:22.094Z,99374.25
2023-04-12T17:47:49.441Z,99374.94
2023-04-12T17:50:16.744Z,99373.38
2023-04-12T17:52:44.997Z,99383.50
2023-04-12T17:55:13.107Z,99388.44
2023-04-12T17:57:40.403Z,99386.34
2023-04-12T18:00:12.112Z,99387.16
2023-04-12T18:02:39.773Z,99384.84
2023-04-12T18:05:07.853Z,99390.78
2023-04-12T18:07:35.022Z,99394.56
2023-04-12T18:10:03.569Z,99390.94
2023-04-12T18:12:30.634Z,99395.12
2023-04-12T18:14:57.688Z,99398.59
2023-04-12T18:17:26.539Z,99404.44
2023-04-12T18:19:54.675Z,99398.34
2023-04-12T18:22:21.857Z,99402.41
2023-04-12T18:24:48.911Z,99410.38
2023-04-12T18:27:15.928Z,99405.91
2023-04-12T18:29:43.013Z,99397.69
2023-04-12T18:32:09.984Z,99399.47
2023-04-12T18:34:36.934Z,99396.25
2023-04-12T18:37:06.183Z,99390.63
2023-04-12T18:39:35.866Z,99398.84
2023-04-12T18:42:03.043Z,99401.41
2023-04-12T18:44:30.536Z,99403.50
2023-04-12T18:46:57.492Z,99408.03
2023-04-12T18:49:24.606Z,99412.78
2023-04-12T18:51:53.504Z,99408.38
2023-04-12T18:54:21.407Z,99405.38
2023-04-12T18:56:49.853Z,99404.66
2023-04-12T18:59:18.001Z,99407.81
2023-04-12T19:01:45.935Z,99410.12
2023-04-12T19:04:13.268Z,99411.53
2023-04-12T19:06:42.466Z,99411.88
2023-04-12T19:09:09.541Z,99415.09
2023-04-12T19:11:37.228Z,99411.25
2023-04-12T19:14:04.720Z,99401.78
2023-04-12T19:16:32.358Z,99403.75
2023-04-12T19:19:00.499Z,99401.50
2023-04-12T19:21:31.801Z,99391.00
2023-04-12T19:23:59.276Z,99384.16
2023-04-12T19:26:28.778Z,99384.00
2023-04-12T19:28:58.469Z,99392.75
2023-04-12T19:31:25.994Z,99406.53
2023-04-12T19:33:54.929Z,99395.62
2023-04-12T19:36:24.883Z,99399.94
2023-04-12T19:38:52.379Z,99413.87
2023-04-12T19:41:20.753Z,99406.00
2023-04-12T19:43:48.026Z,99409.62
2023-04-12T19:46:15.286Z,99402.72
2023-04-12T19:48:42.942Z,99403.66
2023-04-12T19:51:10.039Z,99407.53
2023-04-12T19:53:37.209Z,99405.16
2023-04-12T19:56:04.526Z,99413.16
2023-04-12T19:58:32.356Z,99411.81
2023-04-12T20:01:02.352Z,99413.00
2023-04-12T20:03:30.397Z,99414.00
2023-04-12T20:05:59.305Z,99402.56
2023-04-12T20:08:28.724Z,99396.53
2023-04-12T20:10:56.534Z,99399.78
2023-04-12T20:13:23.571Z,99400.38
2023-04-12T20:15:51.381Z,99397.72
2023-04-12T20:18:18.445Z,99389.69
2023-04-12T20:20:45.904Z,99393.84
2023-04-12T20:23:13.969Z,99390.78
2023-04-12T20:25:42.059Z,99388.19
2023-04-12T20:28:09.694Z,99380.66
2023-04-12T20:30:37.198Z,99373.81
2023-04-12T20:33:04.813Z,99364.94
2023-04-12T20:35:32.333Z,99365.97
2023-04-12T20:38:00.285Z,99357.81
2023-04-12T20:40:30.057Z,99369.44
2023-04-12T20:42:57.158Z,99366.56
2023-04-12T20:45:24.424Z,99376.59
2023-04-12T20:47:51.595Z,99367.94
2023-04-12T20:50:22.660Z,99373.25
2023-04-12T20:52:52.309Z,99363.47
2023-04-12T20:55:19.811Z,99358.53
2023-04-12T20:57:46.906Z,99358.25
2023-04-12T21:00:21.168Z,99361.13
2023-04-12T21:02:49.071Z,99359.59
2023-04-12T21:05:17.262Z,99353.97
2023-04-12T21:07:47.029Z,99349.75
2023-04-12T21:10:15.263Z,99354.31
2023-04-12T21:12:43.029Z,99350.53
2023-04-12T21:15:12.226Z,99334.81
2023-04-12T21:17:39.435Z,99346.37
2023-04-12T21:20:13.672Z,99333.38
2023-04-12T21:22:44.424Z,99341.69
2023-04-12T21:25:14.038Z,99343.19
2023-04-12T21:27:45.930Z,99344.13
2023-04-12T21:30:13.854Z,99342.62
2023-04-12T21:32:41.464Z,99338.19
2023-04-12T21:35:10.087Z,99323.78
2023-04-12T21:37:39.420Z,99316.78
2023-04-12T21:40:09.626Z,99319.50
2023-04-12T21:42:37.720Z,99327.66
2023-04-12T21:45:05.740Z,99335.50
2023-04-12T21:47:33.155Z,99330.69
2023-04-12T21:50:00.742Z,99324.53
2023-04-12T21:52:28.023Z,99328.38
2023-04-12T21:54:55.933Z,99326.88
2023-04-12T21:57:23.014Z,99323.47
2023-04-12T21:59:49.954Z,99311.94
2023-04-12T22:02:16.980Z,99313.56
2023-04-12T22:04:44.370Z,99316.00
2023-04-12T22:07:13.542Z,99313.63
2023-04-12T22:09:41.640Z,99319.50
2023-04-12T22:12:10.167Z,99323.97
2023-04-12T22:14:37.361Z,99318.50
2023-04-12T22:17:06.258Z,99311.50
2023-04-12T22:19:33.345Z,99319.56
2023-04-12T22:22:01.763Z,99318.38
2023-04-12T22:24:29.656Z,99314.59
2023-04-12T22:26:57.694Z,99314.16
2023-04-12T22:29:25.617Z,99305.91
2023-04-12T22:31:52.996Z,99297.94
2023-04-12T22:34:20.089Z,99287.84
2023-04-12T22:36:51.837Z,99295.09
2023-04-12T22:39:20.528Z,99288.09
2023-04-12T22:41:53.347Z,99280.41
2023-04-12T22:44:23.541Z,99291.13
2023-04-12T22:46:54.603Z,99297.16
2023-04-12T22:49:28.452Z,99283.53
2023-04-12T22:51:56.126Z,99285.88
2023-04-12T22:54:26.720Z,99290.56
2023-04-12T22:56:53.772Z,99290.81
2023-04-12T22:59:23.266Z,99296.56
2023-04-12T23:01:50.719Z,99285.97
2023-04-12T23:04:17.820Z,99286.28
2023-04-12T23:06:45.589Z,99281.75
2023-04-12T23:09:13.115Z,99287.16
2023-04-12T23:11:41.478Z,99282.75
2023-04-12T23:14:09.941Z,99277.03
2023-04-12T23:16:42.621Z,99274.06
2023-04-12T23:19:09.799Z,99266.38
2023-04-12T23:21:37.380Z,99271.16
2023-04-12T23:24:05.559Z,99266.69
2023-04-12T23:26:34.588Z,99266.84
2023-04-12T23:29:03.919Z,99261.34
2023-04-12T23:31:33.659Z,99264.34
2023-04-12T23:34:03.937Z,99264.63
2023-04-12T23:36:31.000Z,99263.09
2023-04-12T23:39:00.565Z,99264.22
2023-04-12T23:41:32.242Z,99259.09
2023-04-12T23:44:00.547Z,99267.72
2023-04-12T23:46:28.163Z,99272.13
2023-04-12T23:48:55.402Z,99272.31
2023-04-12T23:51:22.961Z,99265.41
2023-04-12T23:53:50.522Z,99266.59
2023-04-12T23:56:17.662Z,99269.09
2023-04-12T23:58:44.790Z,99272.19
